Amherst, Virginia
Current Conditions -  °F | °C
As of 9:54 PM on Monday 20 Oct 2014 (Local Time) from KLYH Reporting Station
Overcast Overcast  
Wind Chill: 56°   Ceiling: 10000
Heat Index: 56°   Visibility: 10mi
Dew Point: 49°   Wind: 0mph
Humidity: 77%   Direction: NA
Pressure: 29.97"   Gusts: NA
Location:  37.59°N, 79.05°W
Report Text: KLYH 210154Z 00000KT 10SM OVC100 13/09 A2997 RMK AO2 SLP148 T01330094
Loading
Personal Weather Stations






























Interactive Weather Map
Tropical Storm Tracking
New forecast layout! Learn more

10-Day Weather Forecast

Advertisements
Track Severe Weather on mobile